Time;durP1;ratioP1;P1;durP2;ratioP2;P2;SDS_P1;SDS_P2;PMS_P1;PMS_P2;Temp;Humidity;BMP_temperature;BMP_pressure;BME280_temperature;BME280_humidity;BME280_pressure;Samples;Min_cycle;Max_cycle;Signal;HPM_P1;HPM_P2
2022/05/06 00:00:06;;;;;;;22.60;16.37;;;;;;;17.77;53.06;97964.34;5013640;28;20239;-72
2022/05/06 00:02:31;;;;;;;18.73;14.20;;;;;;;17.81;52.84;97968.28;4996667;28;20522;-70
2022/05/06 00:04:57;;;;;;;20.50;15.47;;;;;;;17.79;53.05;97970.28;4996479;28;20539;-71
2022/05/06 00:07:22;;;;;;;25.47;14.77;;;;;;;17.76;53.49;97960.06;5013894;28;20679;-72
2022/05/06 00:09:48;;;;;;;22.97;14.93;;;;;;;17.79;53.93;97964.97;5014192;28;20223;-70
2022/05/06 00:12:17;;;;;;;21.70;14.87;;;;;;;17.78;54.32;97964.19;4996610;28;20180;-71
2022/05/06 00:14:42;;;;;;;21.20;14.50;;;;;;;17.76;54.30;97960.06;4997134;28;20199;-70
2022/05/06 00:17:08;;;;;;;21.50;15.37;;;;;;;17.70;54.05;97960.78;5013489;28;20419;-71
2022/05/06 00:19:33;;;;;;;18.90;15.13;;;;;;;17.65;53.95;97966.63;5013975;28;20235;-70
2022/05/06 00:21:59;;;;;;;18.57;14.17;;;;;;;17.58;55.01;97963.84;4996494;28;20181;-72
2022/05/06 00:24:24;;;;;;;24.40;14.30;;;;;;;17.73;54.55;97965.72;4996721;28;20187;-70
2022/05/06 00:26:50;;;;;;;21.53;15.83;;;;;;;17.69;54.78;97975.88;5013062;28;20176;-71
2022/05/06 00:29:16;;;;;;;19.60;15.13;;;;;;;17.66;54.53;97965.63;5013251;28;20200;-71
2022/05/06 00:31:41;;;;;;;18.60;13.93;;;;;;;17.72;55.10;97964.06;4995911;28;20184;-71
2022/05/06 00:34:09;;;;;;;22.93;14.20;;;;;;;17.74;54.83;97964.72;5013093;28;20208;-71
2022/05/06 00:36:34;;;;;;;21.40;13.63;;;;;;;17.79;54.50;97963.19;4996119;28;20177;-71
2022/05/06 00:39:00;;;;;;;18.97;14.33;;;;;;;17.74;54.26;97956.78;5013298;28;20960;-72
2022/05/06 00:41:25;;;;;;;20.27;14.63;;;;;;;17.64;54.78;97960.47;5013882;28;20180;-71
2022/05/06 00:43:51;;;;;;;17.33;12.80;;;;;;;17.68;55.35;97957.47;4996013;28;20176;-71
2022/05/06 00:46:16;;;;;;;18.63;13.27;;;;;;;17.68;55.46;97962.78;5013335;28;20173;-71
2022/05/06 00:48:46;;;;;;;17.13;13.57;;;;;;;17.60;55.75;97961.00;5013062;28;20252;-71
2022/05/06 00:51:12;;;;;;;18.40;13.50;;;;;;;17.57;55.52;97961.41;5013108;28;20267;-72
2022/05/06 00:53:39;;;;;;;18.80;13.20;;;;;;;17.54;55.21;97961.75;5013055;28;20558;-72
2022/05/06 00:56:08;;;;;;;16.07;12.97;;;;;;;17.50;55.39;97956.78;5012485;28;20259;-71
2022/05/06 00:58:34;;;;;;;21.83;13.80;;;;;;;17.56;55.02;97959.75;5005991;28;20809;-71
2022/05/06 01:01:04;;;;;;;20.80;13.20;;;;;;;17.54;55.29;97948.50;4994674;28;20450;-71
2022/05/06 01:03:30;;;;;;;19.33;14.10;;;;;;;17.56;54.56;97955.25;5012628;28;20172;-71
2022/05/06 01:05:55;;;;;;;18.93;14.70;;;;;;;17.55;54.17;97958.09;5012902;28;20415;-71
2022/05/06 01:08:21;;;;;;;23.20;15.60;;;;;;;17.57;53.95;97956.91;5012290;28;20922;-72
2022/05/06 01:10:47;;;;;;;20.27;14.07;;;;;;;17.49;54.16;97956.97;5012569;28;20207;-72
2022/05/06 01:13:13;;;;;;;21.13;13.10;;;;;;;17.46;54.90;97950.19;5012373;28;20212;-72
2022/05/06 01:15:38;;;;;;;18.50;13.90;;;;;;;17.55;54.25;97956.25;5012586;28;20459;-70
2022/05/06 01:18:04;;;;;;;19.90;14.23;;;;;;;17.55;54.55;97961.56;5012094;28;20207;-70
2022/05/06 01:20:33;;;;;;;18.50;14.27;;;;;;;17.55;54.75;97963.41;5012452;28;20200;-71
2022/05/06 01:22:58;;;;;;;22.60;13.57;;;;;;;17.58;54.95;97966.50;4978864;28;20192;-71
2022/05/06 01:25:24;;;;;;;22.57;12.87;;;;;;;17.53;55.44;97955.59;5004294;28;20428;-71
2022/05/06 01:28:01;;;;;;;18.50;12.63;;;;;;;17.53;55.35;97971.50;5011789;28;20183;-71
2022/05/06 01:30:38;;;;;;;18.13;13.80;;;;;;;17.53;55.51;97966.19;5004446;28;20453;-71
2022/05/06 01:33:05;;;;;;;19.50;14.37;;;;;;;17.57;55.29;97966.69;4994109;28;20453;-71
2022/05/06 01:35:33;;;;;;;19.77;13.03;;;;;;;17.55;55.54;97960.75;5012290;28;20493;-71
2022/05/06 01:38:02;;;;;;;24.93;14.20;;;;;;;17.54;55.64;97969.69;4995361;28;20526;-72
2022/05/06 01:40:29;;;;;;;24.17;13.77;;;;;;;17.43;56.10;97970.94;5001204;28;20485;-71
2022/05/06 01:42:59;;;;;;;23.67;13.33;;;;;;;17.47;55.99;97967.75;4994714;28;20438;-71
2022/05/06 01:45:26;;;;;;;24.53;14.50;;;;;;;17.53;55.38;97973.34;4987619;28;20423;-71
2022/05/06 01:47:52;;;;;;;25.93;14.80;;;;;;;17.53;55.06;97974.16;4996539;28;20420;-71
2022/05/06 01:50:20;;;;;;;17.13;13.93;;;;;;;17.52;54.77;97964.56;5011483;28;20451;-70
2022/05/06 01:52:48;;;;;;;19.83;14.63;;;;;;;17.49;54.74;97973.69;4994550;28;20435;-71
2022/05/06 01:55:15;;;;;;;19.87;15.73;;;;;;;17.49;54.62;97972.88;5011950;28;20574;-71
2022/05/06 01:57:41;;;;;;;16.03;13.27;;;;;;;17.47;54.91;97978.34;5011429;28;20435;-70
2022/05/06 02:00:07;;;;;;;21.97;14.27;;;;;;;17.51;54.82;97976.19;4993802;28;20455;-71
2022/05/06 02:02:33;;;;;;;25.27;16.27;;;;;;;17.52;54.23;97974.34;4994373;28;20424;-69
2022/05/06 02:05:16;;;;;;;23.70;15.87;;;;;;;17.57;54.12;97974.66;4977679;28;20439;-70
2022/05/06 02:07:46;;;;;;;25.63;15.37;;;;;;;17.52;54.19;97963.75;5005974;28;20314;-71
2022/05/06 02:10:12;;;;;;;25.17;15.10;;;;;;;17.47;54.53;97972.22;5011426;28;20535;-69
2022/05/06 02:12:37;;;;;;;19.67;14.97;;;;;;;17.53;54.81;97960.91;4993480;28;20432;-72
2022/05/06 02:15:03;;;;;;;21.03;14.40;;;;;;;17.49;55.24;97957.78;4993774;28;20530;-71
2022/05/06 02:17:29;;;;;;;16.57;14.27;;;;;;;17.51;55.22;97962.94;5011150;28;20651;-70
2022/05/06 02:19:55;;;;;;;17.20;13.40;;;;;;;17.45;55.16;97968.94;5011711;28;20223;-70
2022/05/06 02:22:21;;;;;;;19.50;15.13;;;;;;;17.48;55.22;97966.75;5011392;28;20184;-71
2022/05/06 02:24:46;;;;;;;23.90;16.20;;;;;;;17.40;54.70;97971.28;5011563;28;21028;-70
2022/05/06 02:27:12;;;;;;;21.00;14.20;;;;;;;17.42;55.06;97966.63;5010698;28;20188;-69
2022/05/06 02:33:12;;;;;;;21.97;15.20;;;;;;;17.46;54.93;97960.78;5011763;28;20204;-72
2022/05/06 02:35:10;;;;;;;23.17;16.30;;;;;;;17.39;54.46;97969.66;5010898;28;20504;-71
2022/05/06 02:37:35;;;;;;;22.03;14.47;;;;;;;17.39;54.78;97964.34;5011164;28;20506;-70
2022/05/06 02:40:02;;;;;;;19.80;15.23;;;;;;;17.26;55.60;97964.94;5010793;28;20592;-72
2022/05/06 02:42:27;;;;;;;19.33;13.60;;;;;;;17.37;55.66;97963.69;4993638;28;20187;-71
2022/05/06 02:44:53;;;;;;;21.20;14.60;;;;;;;17.43;55.42;97965.63;5011311;28;20934;-72
2022/05/06 02:47:18;;;;;;;25.83;15.10;;;;;;;17.45;55.00;97968.94;4993124;28;20192;-71
2022/05/06 02:49:44;;;;;;;22.60;15.17;;;;;;;17.42;54.60;97971.94;5011224;28;20276;-71
2022/05/06 02:52:10;;;;;;;17.73;14.00;;;;;;;17.31;55.07;97971.34;4977369;28;20188;-70
2022/05/06 02:54:35;;;;;;;23.77;14.30;;;;;;;17.33;55.77;97971.16;4993684;28;20205;-71
2022/05/06 02:57:02;;;;;;;18.23;13.97;;;;;;;17.39;55.52;97969.66;4992868;28;20268;-70
2022/05/06 02:59:31;;;;;;;18.20;14.17;;;;;;;17.37;55.91;97967.16;5011620;28;20261;-71
2022/05/06 03:01:57;;;;;;;23.37;14.30;;;;;;;17.44;55.45;97964.63;5011469;28;20455;-70
2022/05/06 03:04:22;;;;;;;19.83;13.77;;;;;;;17.45;55.61;97968.94;4993766;28;20466;-72
2022/05/06 03:06:48;;;;;;;19.77;14.70;;;;;;;17.39;55.20;97965.16;5011125;28;20427;-70
2022/05/06 03:09:14;;;;;;;22.30;14.13;;;;;;;17.41;55.62;97967.63;5011173;28;20222;-72
2022/05/06 03:11:39;;;;;;;21.93;15.13;;;;;;;17.45;55.08;97971.56;5011254;28;20267;-70
2022/05/06 03:14:05;;;;;;;19.67;14.63;;;;;;;17.43;55.20;97966.47;5011041;28;20299;-71
2022/05/06 03:16:30;;;;;;;18.00;13.97;;;;;;;17.43;54.93;97966.47;5010846;28;20184;-70
2022/05/06 03:18:56;;;;;;;19.03;13.70;;;;;;;17.45;54.84;97960.97;5011146;28;20191;-70
2022/05/06 03:21:21;;;;;;;20.30;13.90;;;;;;;17.41;54.80;97962.31;5010954;28;20184;-71
2022/05/06 03:23:50;;;;;;;23.63;14.63;;;;;;;17.46;54.16;97965.28;5011350;28;20262;-71
2022/05/06 03:26:16;;;;;;;21.63;13.23;;;;;;;17.42;54.08;97964.81;5014640;28;20249;-72
2022/05/06 03:28:42;;;;;;;19.60;14.10;;;;;;;17.42;54.67;97958.69;4997204;28;20464;-70
2022/05/06 03:31:08;;;;;;;18.23;13.67;;;;;;;17.44;54.58;97962.81;5014477;28;20439;-70
2022/05/06 03:33:33;;;;;;;21.53;13.33;;;;;;;17.49;54.69;97954.34;5014907;28;20557;-70
2022/05/06 03:35:59;;;;;;;19.50;13.80;;;;;;;17.46;54.38;97959.97;4996942;28;20180;-73
2022/05/06 03:38:24;;;;;;;20.43;13.93;;;;;;;17.46;54.14;97957.34;4988955;28;20213;-71
2022/05/06 03:40:50;;;;;;;19.57;14.00;;;;;;;17.43;53.82;97965.63;5013797;28;20287;-71
2022/05/06 03:43:16;;;;;;;18.13;13.70;;;;;;;17.30;54.64;97967.03;4996654;28;20715;-70
2022/05/06 03:45:41;;;;;;;17.23;13.00;;;;;;;17.39;54.91;97967.81;5012129;28;20444;-71
2022/05/06 03:48:07;;;;;;;21.20;13.67;;;;;;;17.34;54.63;97973.66;4983648;28;20245;-72
2022/05/06 03:53:16;;;;;;;19.20;14.93;;;;;;;17.33;54.54;97966.69;5013989;28;20188;-72
2022/05/06 03:55:42;;;;;;;15.70;12.63;;;;;;;17.28;54.59;97966.41;5016127;28;20945;-71
2022/05/06 03:58:07;;;;;;;16.00;11.57;;;;;;;17.26;54.29;97972.88;5013239;28;20271;-71
2022/05/06 04:00:33;;;;;;;15.80;12.23;;;;;;;17.21;54.50;97968.13;4996430;28;20236;-70
2022/05/06 04:02:58;;;;;;;17.30;12.40;;;;;;;17.21;54.43;97970.75;5013798;28;20555;-70
2022/05/06 04:05:24;;;;;;;21.27;12.13;;;;;;;17.26;54.93;97968.41;5013227;28;20192;-71
2022/05/06 04:07:49;;;;;;;18.90;12.33;;;;;;;17.32;54.49;97980.13;5013567;28;20188;-71
2022/05/06 04:10:15;;;;;;;18.87;12.03;;;;;;;17.31;54.34;97981.94;5015544;28;20216;-71
2022/05/06 04:12:40;;;;;;;18.60;12.77;;;;;;;17.24;54.65;97982.81;5013949;28;20231;-71
2022/05/06 04:15:06;;;;;;;17.10;13.80;;;;;;;17.23;55.05;97979.38;5013098;28;20227;-71
2022/05/06 04:17:32;;;;;;;14.40;12.03;;;;;;;17.18;54.97;97989.66;5013275;28;20181;-71
2022/05/06 04:25:45;;;;;;;17.50;12.57;;;;;;;17.29;54.95;97991.06;4947541;29;20879;-70
2022/05/06 04:28:11;;;;;;;14.27;12.20;;;;;;;17.17;54.90;97993.28;4926172;28;20434;-70
2022/05/06 04:30:36;;;;;;;22.67;12.77;;;;;;;17.16;55.11;97997.78;4957661;28;20672;-71
2022/05/06 04:33:03;;;;;;;21.67;12.87;;;;;;;17.22;55.39;98000.72;5011948;28;20227;-69
2022/05/06 04:35:28;;;;;;;15.83;12.00;;;;;;;17.29;55.16;97999.03;5015693;28;20210;-71
2022/05/06 04:37:54;;;;;;;17.37;12.37;;;;;;;17.25;54.85;97998.56;5016509;28;20511;-70
2022/05/06 04:40:19;;;;;;;20.20;12.40;;;;;;;17.17;55.14;97994.13;5011879;28;20911;-71
2022/05/06 04:42:45;;;;;;;17.00;12.57;;;;;;;17.20;55.44;98000.91;5012507;28;20279;-70
2022/05/06 04:45:10;;;;;;;17.23;12.70;;;;;;;17.24;55.29;97999.56;4995190;28;20563;-70
2022/05/06 04:47:37;;;;;;;17.60;12.17;;;;;;;17.27;55.36;97995.72;4995028;28;20238;-70
2022/05/06 04:50:04;;;;;;;15.17;12.00;;;;;;;17.25;55.28;98000.38;5012054;28;20584;-70
2022/05/06 04:52:31;;;;;;;13.77;11.87;;;;;;;17.19;55.68;98004.53;5012210;28;20844;-72
2022/05/06 04:54:56;;;;;;;19.90;11.97;;;;;;;17.22;55.84;98006.84;5012597;28;20455;-72
2022/05/06 04:57:22;;;;;;;19.70;11.90;;;;;;;17.21;55.81;98002.53;5011830;28;20450;-71
2022/05/06 04:59:47;;;;;;;14.00;12.47;;;;;;;17.22;55.81;98006.00;5011783;28;20196;-71
2022/05/06 05:02:17;;;;;;;19.00;12.20;;;;;;;17.25;55.92;98016.25;5012474;28;20554;-72
2022/05/06 05:04:43;;;;;;;17.03;12.80;;;;;;;17.25;55.94;98014.44;4995143;28;20619;-70
2022/05/06 05:07:08;;;;;;;17.00;12.00;;;;;;;17.27;55.89;98014.25;5011756;28;20989;-70
2022/05/06 05:09:34;;;;;;;13.33;11.93;;;;;;;17.25;56.31;98019.75;5011744;28;20465;-70
2022/05/06 05:11:59;;;;;;;17.13;11.70;;;;;;;17.25;55.87;98016.25;5011643;28;20184;-70
2022/05/06 05:14:25;;;;;;;13.20;11.60;;;;;;;17.27;55.65;98020.38;5012242;28;20590;-70
2022/05/06 05:16:50;;;;;;;15.03;11.67;;;;;;;17.23;56.14;98021.75;5011866;28;20180;-69
2022/05/06 05:19:16;;;;;;;21.30;11.03;;;;;;;17.19;56.45;98023.09;5011380;28;20211;-73
2022/05/06 05:21:42;;;;;;;14.93;10.97;;;;;;;17.24;56.13;98020.75;4994952;28;20180;-72
2022/05/06 05:24:08;;;;;;;13.30;11.47;;;;;;;17.19;56.24;98018.63;4993854;28;20477;-74
2022/05/06 05:26:34;;;;;;;12.60;10.73;;;;;;;17.16;56.44;98016.31;4994175;28;20191;-74
2022/05/06 05:29:00;;;;;;;17.73;10.97;;;;;;;17.16;56.19;98018.13;5011800;28;20419;-71
2022/05/06 05:31:26;;;;;;;12.50;10.37;;;;;;;17.11;56.33;98018.66;5012222;28;20945;-69
2022/05/06 05:33:54;;;;;;;15.47;11.73;;;;;;;17.08;56.31;98018.19;5011335;28;20467;-69
2022/05/06 05:36:20;;;;;;;11.60;10.40;;;;;;;17.06;56.12;98021.00;5011744;28;20189;-73
2022/05/06 05:38:45;;;;;;;14.30;11.43;;;;;;;16.95;56.08;98022.22;4994532;28;20546;-70
2022/05/06 05:41:11;;;;;;;16.23;11.03;;;;;;;16.99;56.60;98028.81;5010691;28;20196;-72
2022/05/06 05:49:05;;;;;;;14.10;10.80;;;;;;;16.93;56.94;98024.19;5008068;28;20590;-70
2022/05/06 05:51:32;;;;;;;13.97;11.30;;;;;;;16.92;57.16;98027.81;5011598;28;20566;-69
2022/05/06 05:53:57;;;;;;;13.97;11.57;;;;;;;16.82;57.17;98029.88;4994712;28;20212;-70
2022/05/06 05:56:23;;;;;;;14.60;10.63;;;;;;;16.89;57.26;98029.00;4991742;28;20462;-71
2022/05/06 05:58:51;;;;;;;15.90;12.27;;;;;;;16.85;57.21;98032.16;5016107;28;20199;-69
2022/05/06 06:01:17;;;;;;;20.03;11.37;;;;;;;16.85;57.06;98037.47;5012267;28;20196;-70
2022/05/06 06:03:43;;;;;;;13.93;10.80;;;;;;;16.86;57.65;98034.63;5011757;28;20469;-69
2022/05/06 06:06:08;;;;;;;13.67;11.07;;;;;;;16.86;57.27;98041.75;5011178;28;20900;-70
2022/05/06 06:08:35;;;;;;;14.50;11.50;;;;;;;16.84;57.64;98035.81;5011677;28;20710;-69
2022/05/06 06:11:03;;;;;;;13.70;11.07;;;;;;;16.85;57.67;98043.56;5011676;28;20202;-69
2022/05/06 06:13:32;;;;;;;14.23;11.93;;;;;;;16.84;57.85;98047.22;5011494;28;20463;-68
2022/05/06 06:15:58;;;;;;;15.43;12.40;;;;;;;16.85;57.81;98042.75;5009634;28;20429;-68
2022/05/06 06:18:26;;;;;;;15.20;12.33;;;;;;;16.87;57.63;98048.72;4999445;28;20926;-69
2022/05/06 06:20:55;;;;;;;14.03;11.30;;;;;;;16.91;57.69;98047.34;4999551;28;20299;-69
2022/05/06 06:23:21;;;;;;;14.53;10.93;;;;;;;16.95;57.77;98043.41;4999793;28;20463;-69
2022/05/06 06:25:46;;;;;;;14.80;11.53;;;;;;;16.96;57.34;98044.22;5002759;28;20578;-68
2022/05/06 06:28:12;;;;;;;15.50;12.07;;;;;;;16.92;56.74;98038.41;5000697;28;20192;-69
2022/05/06 06:30:38;;;;;;;15.70;11.47;;;;;;;16.93;56.85;98036.59;4982827;28;20212;-68
2022/05/06 06:33:03;;;;;;;15.70;10.73;;;;;;;16.87;56.67;98051.34;5003947;28;21064;-69
2022/05/06 06:35:29;;;;;;;21.80;12.60;;;;;;;16.88;56.82;98048.53;4980481;28;20576;-69
2022/05/06 06:37:55;;;;;;;15.70;12.17;;;;;;;16.77;56.25;98053.34;5002120;28;20185;-69
2022/05/06 06:40:21;;;;;;;18.50;12.03;;;;;;;16.78;56.37;98052.38;5002681;28;20204;-70
2022/05/06 06:42:47;;;;;;;15.83;13.20;;;;;;;16.71;56.84;98050.41;4998099;28;20659;-70
2022/05/06 06:45:12;;;;;;;19.80;12.97;;;;;;;16.72;56.52;98053.88;5000011;28;20424;-71
2022/05/06 06:47:39;;;;;;;14.77;11.47;;;;;;;16.71;56.80;98044.28;4990666;28;21173;-69
2022/05/06 06:50:05;;;;;;;15.27;11.87;;;;;;;16.69;56.96;98059.53;4997045;28;20280;-70
2022/05/06 06:52:31;;;;;;;17.27;12.67;;;;;;;16.69;56.92;98055.06;5000134;28;20474;-69
2022/05/06 06:54:57;;;;;;;14.40;12.53;;;;;;;16.73;56.66;98055.53;4984040;28;20448;-68
2022/05/06 06:57:23;;;;;;;19.50;11.80;;;;;;;16.80;56.79;98061.81;5003664;28;20616;-69
2022/05/06 06:59:48;;;;;;;16.17;12.83;;;;;;;16.83;56.69;98060.63;5003032;28;20509;-68
2022/05/06 07:02:14;;;;;;;16.13;12.87;;;;;;;16.85;56.55;98067.41;5011036;28;20561;-69
2022/05/06 07:04:39;;;;;;;17.07;12.60;;;;;;;16.89;56.45;98070.53;5011329;28;20181;-69
2022/05/06 07:12:33;;;;;;;18.93;12.63;;;;;;;16.77;55.64;98056.00;5009257;28;20435;-69
2022/05/06 07:15:01;;;;;;;16.33;11.00;;;;;;;16.80;55.77;98066.25;5010816;28;20547;-68
2022/05/06 07:17:26;;;;;;;13.07;10.00;;;;;;;16.78;55.24;98066.44;5009740;28;20513;-69
2022/05/06 07:19:52;;;;;;;16.97;11.40;;;;;;;16.80;55.10;98069.75;5017666;28;20449;-68
2022/05/06 07:22:18;;;;;;;12.63;10.50;;;;;;;16.89;54.53;98075.81;5017120;28;20184;-68
2022/05/06 07:24:44;;;;;;;13.50;10.10;;;;;;;16.87;54.36;98073.34;4981272;28;20184;-69
2022/05/06 07:27:09;;;;;;;13.00;9.90;;;;;;;16.88;54.29;98072.34;5016751;28;20441;-70
2022/05/06 07:29:35;;;;;;;12.80;9.67;;;;;;;16.87;54.41;98072.53;5017698;28;20683;-69
2022/05/06 07:32:00;;;;;;;21.70;11.90;;;;;;;16.88;54.24;98075.00;4999995;28;20199;-68
2022/05/06 07:34:26;;;;;;;14.27;10.63;;;;;;;16.94;54.13;98068.22;5000228;28;20238;-69
2022/05/06 07:36:51;;;;;;;19.97;11.70;;;;;;;17.02;53.71;98081.41;5017642;28;20184;-69
2022/05/06 07:39:17;;;;;;;15.27;11.27;;;;;;;17.03;53.90;98077.78;5017609;28;20257;-68
2022/05/06 07:41:43;;;;;;;13.67;9.87;;;;;;;17.02;53.82;98078.78;5017819;28;20188;-69
2022/05/06 07:44:08;;;;;;;17.47;10.70;;;;;;;17.00;53.78;98077.31;5017073;28;20189;-70
2022/05/06 07:46:36;;;;;;;18.10;9.90;;;;;;;17.09;53.96;98070.16;5014354;28;20224;-68
2022/05/06 07:49:02;;;;;;;16.73;10.33;;;;;;;17.09;53.43;98080.75;5013909;28;20956;-69
2022/05/06 07:51:28;;;;;;;11.67;9.47;;;;;;;17.04;53.23;98078.63;5019273;28;20423;-69
2022/05/06 07:53:56;;;;;;;13.80;9.80;;;;;;;16.95;52.94;98075.16;4981706;28;20560;-69
2022/05/06 07:56:23;;;;;;;14.27;8.97;;;;;;;16.85;53.02;98072.69;5015682;28;20219;-69
2022/05/06 07:58:52;;;;;;;14.70;9.87;;;;;;;16.88;53.11;98072.34;4998965;28;20427;-70
2022/05/06 08:04:32;;;;;;;9.40;8.40;;;;;;;16.93;53.45;98081.63;5017283;28;20427;-69
2022/05/06 08:06:52;;;;;;;10.93;9.67;;;;;;;17.00;53.58;98078.16;5014431;28;20465;-68
2022/05/06 08:09:18;;;;;;;17.23;9.50;;;;;;;17.07;52.71;98082.72;5016113;28;20447;-69
2022/05/06 08:11:46;;;;;;;12.17;8.93;;;;;;;17.06;52.90;98089.03;5010722;28;20426;-70
2022/05/06 08:14:13;;;;;;;11.50;9.20;;;;;;;17.07;53.01;98083.56;5014000;28;20196;-68
2022/05/06 08:16:38;;;;;;;11.33;9.10;;;;;;;17.13;52.84;98090.00;5013949;28;20419;-70
2022/05/06 08:19:04;;;;;;;14.57;9.10;;;;;;;17.18;52.91;98085.00;5013434;28;20902;-69
2022/05/06 08:21:29;;;;;;;11.80;9.20;;;;;;;17.22;52.98;98083.66;5013816;28;20239;-69
2022/05/06 08:23:55;;;;;;;15.60;8.33;;;;;;;17.17;52.30;98088.63;5013774;28;20522;-69
2022/05/06 08:26:21;;;;;;;13.23;9.57;;;;;;;17.20;52.23;98085.66;5013145;28;20184;-70
2022/05/06 08:28:46;;;;;;;10.50;8.30;;;;;;;17.24;52.56;98091.41;5013953;28;20180;-68
2022/05/06 08:31:12;;;;;;;9.90;8.33;;;;;;;17.27;52.33;98094.53;5013579;28;20232;-69
2022/05/06 08:33:37;;;;;;;11.33;8.33;;;;;;;17.37;53.16;98094.34;5013131;28;20212;-69
2022/05/06 08:36:05;;;;;;;14.27;8.60;;;;;;;17.49;52.49;98097.44;5012642;28;20267;-70
2022/05/06 08:38:30;;;;;;;11.77;9.23;;;;;;;17.50;51.02;98093.78;5013392;28;20635;-69
2022/05/06 08:40:57;;;;;;;12.60;8.13;;;;;;;17.47;51.14;98088.81;4995989;28;20489;-70
2022/05/06 08:43:22;;;;;;;11.53;8.40;;;;;;;17.51;50.59;98092.78;5011529;28;20230;-68
2022/05/06 08:51:20;;;;;;;17.13;8.13;;;;;;;17.64;50.76;98097.50;5013281;28;20442;-69
2022/05/06 08:53:45;;;;;;;13.03;9.30;;;;;;;17.61;50.50;98101.31;4990703;28;20592;-68
2022/05/06 08:56:11;;;;;;;12.50;8.73;;;;;;;17.60;50.71;98104.13;5012643;28;20523;-69
2022/05/06 08:58:37;;;;;;;8.33;7.50;;;;;;;17.59;51.19;98097.19;5015149;28;20631;-69
2022/05/06 09:01:07;;;;;;;9.47;8.00;;;;;;;17.59;51.10;98103.31;4998214;28;20295;-70
2022/05/06 09:03:33;;;;;;;9.03;8.13;;;;;;;17.63;51.13;98099.34;5012976;28;20428;-69
2022/05/06 09:05:59;;;;;;;11.93;8.33;;;;;;;17.66;51.05;98103.44;5012902;28;20423;-71
2022/05/06 09:08:55;;;;;;;15.77;10.50;;;;;;;17.76;51.07;98105.88;4995085;28;20172;-70
2022/05/06 09:14:07;;;;;;;11.30;7.87;;;;;;;17.83;50.30;98104.16;5012694;28;20941;-68
2022/05/06 09:16:42;;;;;;;10.17;7.63;;;;;;;17.87;50.52;98104.63;5012737;28;20502;-68
2022/05/06 09:19:11;;;;;;;13.00;7.50;;;;;;;17.91;50.16;98113.88;5009759;28;20433;-69
2022/05/06 09:21:37;;;;;;;11.57;7.10;;;;;;;17.92;50.05;98111.03;5012493;28;20423;-69
2022/05/06 09:24:19;;;;;;;23.90;16.47;;;;;;;18.02;50.10;98104.72;5012172;28;20711;-68
2022/05/06 09:27:04;;;;;;;39.40;31.47;;;;;;;18.08;50.43;98111.94;5009823;28;20454;-69
2022/05/06 09:29:41;;;;;;;25.10;15.60;;;;;;;18.15;49.65;98110.22;5005384;28;20439;-68
2022/05/06 09:32:18;;;;;;;13.97;11.90;;;;;;;18.19;49.90;98116.00;5011737;28;20446;-69
2022/05/06 09:34:46;;;;;;;17.07;8.60;;;;;;;18.23;49.32;98117.28;5012066;28;20500;-69
2022/05/06 09:37:28;;;;;;;10.20;7.63;;;;;;;18.25;49.33;98121.44;4993835;28;20518;-68
2022/05/06 09:40:04;;;;;;;8.30;7.10;;;;;;;18.29;48.84;98127.19;5011845;28;20455;-69
2022/05/06 09:42:30;;;;;;;8.23;7.43;;;;;;;18.40;48.89;98125.91;5010987;28;20866;-68
2022/05/06 09:44:55;;;;;;;12.07;7.53;;;;;;;18.48;49.35;98117.06;4977745;28;20478;-70
2022/05/06 09:47:21;;;;;;;8.60;7.20;;;;;;;18.60;49.10;98115.63;4995262;28;20303;-68
2022/05/06 09:49:49;;;;;;;11.70;8.00;;;;;;;18.70;49.19;98115.34;5011845;28;20235;-68
2022/05/06 09:52:15;;;;;;;12.10;8.20;;;;;;;18.78;49.17;98115.25;4994952;28;20188;-69
2022/05/06 09:54:42;;;;;;;11.00;7.77;;;;;;;18.80;48.44;98110.59;5013039;28;20467;-67
2022/05/06 09:57:08;;;;;;;11.30;7.57;;;;;;;18.88;48.09;98105.22;5011610;28;20451;-69
2022/05/06 09:59:35;;;;;;;9.90;6.97;;;;;;;18.93;47.81;98109.13;5010822;28;20451;-68
2022/05/06 10:02:00;;;;;;;7.97;7.27;;;;;;;18.99;47.46;98108.44;5020548;28;20518;-68
2022/05/06 10:04:26;;;;;;;13.13;7.80;;;;;;;19.06;47.49;98117.28;5012299;28;20981;-68
2022/05/06 10:06:53;;;;;;;7.00;6.30;;;;;;;19.17;47.46;98111.50;5012227;28;20188;-68
2022/05/06 10:09:19;;;;;;;10.13;6.90;;;;;;;19.37;47.64;98102.97;5010978;28;20216;-70
2022/05/06 10:11:46;;;;;;;8.37;7.00;;;;;;;19.57;46.99;98107.66;4995803;28;20434;-69
2022/05/06 10:14:13;;;;;;;12.27;7.17;;;;;;;19.76;45.64;98106.22;4996623;28;20473;-69
2022/05/06 10:16:39;;;;;;;8.10;6.93;;;;;;;19.88;45.61;98109.25;5011454;28;20438;-69
2022/05/06 10:19:24;;;;;;;8.33;7.53;;;;;;;20.06;45.53;98114.94;5011769;28;20424;-71
2022/05/06 10:21:50;;;;;;;7.63;6.90;;;;;;;20.18;44.36;98117.06;4995238;28;20184;-69
2022/05/06 10:24:16;;;;;;;7.77;6.80;;;;;;;20.36;43.98;98109.44;5011566;28;20446;-70
2022/05/06 10:26:45;;;;;;;11.23;7.00;;;;;;;20.50;44.46;98109.53;5011062;28;20192;-69
2022/05/06 10:35:05;;;;;;;7.67;6.87;;;;;;;20.96;43.17;98100.22;5011013;28;20470;-71
2022/05/06 10:37:35;;;;;;;7.90;6.50;;;;;;;21.19;42.21;98097.22;5008061;28;20511;-70
2022/05/06 10:40:23;;;;;;;15.53;7.57;;;;;;;21.32;42.24;98094.63;5011673;28;20965;-70
2022/05/06 10:42:49;;;;;;;7.10;6.40;;;;;;;21.44;42.18;98089.53;5010819;28;20431;-69
2022/05/06 10:45:26;;;;;;;14.43;6.90;;;;;;;21.56;42.62;98086.28;5010694;28;20423;-69
2022/05/06 10:47:52;;;;;;;9.97;7.03;;;;;;;21.62;41.63;98082.81;5008397;28;20432;-68
2022/05/06 10:50:19;;;;;;;7.93;6.70;;;;;;;21.65;41.22;98078.97;5010684;28;20525;-69
2022/05/06 10:52:47;;;;;;;7.90;6.37;;;;;;;21.73;41.00;98068.91;5011274;28;20271;-69
2022/05/06 10:55:15;;;;;;;10.20;7.17;;;;;;;21.70;41.63;98077.31;5010927;28;20470;-68
2022/05/06 10:57:49;;;;;;;9.70;6.87;;;;;;;21.63;41.06;98077.31;5011242;28;20435;-67
2022/05/06 11:00:15;;;;;;;13.90;7.50;;;;;;;21.76;40.08;98071.16;4994418;28;20781;-69
2022/05/06 11:02:40;;;;;;;10.73;7.03;;;;;;;21.83;39.59;98071.16;5011585;28;20424;-68
2022/05/06 11:05:08;;;;;;;9.77;6.40;;;;;;;21.92;39.39;98075.31;4994690;28;20237;-69
2022/05/06 11:07:35;;;;;;;9.10;6.70;;;;;;;22.11;39.83;98078.16;5011169;28;20663;-69
2022/05/06 11:10:16;;;;;;;10.57;6.97;;;;;;;22.40;40.03;98071.56;5011016;28;20545;-69
2022/05/06 11:12:42;;;;;;;7.10;6.40;;;;;;;22.58;38.93;98071.97;5011216;28;20801;-69
2022/05/06 11:15:16;;;;;;;9.87;7.10;;;;;;;22.78;37.86;98078.09;5011179;28;20818;-69
2022/05/06 11:17:43;;;;;;;8.90;6.10;;;;;;;23.06;38.08;98073.47;5011666;28;20423;-69
2022/05/06 11:20:21;;;;;;;9.90;6.37;;;;;;;23.13;36.80;98074.25;5013674;28;20504;-71
2022/05/06 11:23:02;;;;;;;10.00;6.20;;;;;;;23.33;36.45;98074.19;5011137;28;20431;-71
2022/05/06 11:25:33;;;;;;;6.73;6.13;;;;;;;23.50;35.20;98063.00;4986519;28;20774;-69
2022/05/06 11:28:00;;;;;;;8.00;5.97;;;;;;;23.42;35.27;98067.59;5010465;28;20443;-69
2022/05/06 11:30:27;;;;;;;12.00;6.13;;;;;;;23.56;36.22;98060.28;5011220;28;20533;-70
2022/05/06 11:32:57;;;;;;;6.50;5.50;;;;;;;23.62;34.99;98062.13;5009434;28;20482;-68
2022/05/06 11:35:51;;;;;;;7.50;5.47;;;;;;;23.74;35.44;98059.56;4993005;28;20471;-69
2022/05/06 11:38:37;;;;;;;7.53;5.60;;;;;;;23.61;35.32;98078.38;5010377;28;20427;-68
2022/05/06 11:41:10;;;;;;;8.00;6.03;;;;;;;23.63;35.06;98069.09;5010760;28;20465;-70
2022/05/06 11:43:37;;;;;;;13.37;6.67;;;;;;;23.69;35.53;98072.75;5010739;28;20801;-69
2022/05/06 11:48:47;;;;;;;6.33;5.73;;;;;;;23.71;35.12;98053.81;5014924;28;20919;-69
2022/05/06 11:51:26;;;;;;;6.30;5.27;;;;;;;23.60;35.23;98068.72;5014181;28;20538;-69
2022/05/06 11:53:53;;;;;;;8.43;5.80;;;;;;;23.55;35.78;98071.22;5012563;28;20462;-68
2022/05/06 11:56:25;;;;;;;8.77;5.50;;;;;;;23.42;35.13;98067.59;4985098;28;20444;-68
2022/05/06 11:58:53;;;;;;;59.20;6.70;;;;;;;23.13;35.30;98059.06;5014662;28;20438;-69
2022/05/06 12:01:25;;;;;;;8.07;6.90;;;;;;;23.16;35.36;98064.00;4996906;28;20427;-68
2022/05/06 12:03:50;;;;;;;14.83;7.10;;;;;;;23.22;35.91;98062.34;5014367;28;20466;-69